createdAt,value
2023-01-26T00:03:38.911Z,-0.10
2023-01-26T00:08:43.178Z,-0.19
2023-01-26T00:13:46.048Z,-0.17
2023-01-26T00:18:49.579Z,-0.15
2023-01-26T00:23:52.640Z,-0.20
2023-01-26T00:28:55.442Z,-0.23
2023-01-26T00:33:59.291Z,-0.21
2023-01-26T00:39:01.380Z,-0.11
2023-01-26T00:44:03.430Z,-0.04
2023-01-26T00:49:07.019Z,-0.02
2023-01-26T00:54:09.228Z,-0.07
2023-01-26T00:59:11.898Z,-0.05
2023-01-26T01:04:15.601Z,-0.04
2023-01-26T01:09:18.236Z,-0.10
2023-01-26T01:14:20.404Z,-0.15
2023-01-26T01:19:23.872Z,-0.20
2023-01-26T01:24:25.960Z,-0.15
2023-01-26T01:29:28.604Z,0.01
2023-01-26T01:34:32.212Z,-0.08
2023-01-26T01:39:34.482Z,-0.03
2023-01-26T01:44:37.330Z,0.01
2023-01-26T01:49:46.212Z,-0.07
2023-01-26T01:54:54.626Z,-0.13
2023-01-26T02:00:01.180Z,-0.12
2023-01-26T02:05:18.330Z,-0.23
2023-01-26T02:10:21.171Z,-0.29
2023-01-26T02:15:23.113Z,-0.24
2023-01-26T02:20:32.839Z,-0.40
2023-01-26T02:25:42.994Z,-0.32
2023-01-26T02:30:46.941Z,-0.25
2023-01-26T02:35:49.116Z,-0.32
2023-01-26T02:40:55.327Z,-0.25
2023-01-26T02:45:59.300Z,-0.35
2023-01-26T02:51:01.589Z,-0.23
2023-01-26T02:56:03.887Z,-0.40
2023-01-26T03:01:07.240Z,-0.31
2023-01-26T03:06:10.236Z,-0.29
2023-01-26T03:11:12.440Z,-0.51
2023-01-26T03:16:16.018Z,-0.35
2023-01-26T03:21:18.277Z,-0.39
2023-01-26T03:26:20.329Z,-0.47
2023-01-26T03:31:24.133Z,-0.51
2023-01-26T03:36:26.243Z,-0.44
2023-01-26T03:41:28.654Z,-0.36
2023-01-26T03:46:32.175Z,-0.51
2023-01-26T03:51:34.378Z,-0.52
2023-01-26T03:56:36.530Z,-0.48
2023-01-26T04:01:41.331Z,-0.38
2023-01-26T04:06:45.320Z,-0.49
2023-01-26T04:11:47.605Z,-0.26
2023-01-26T04:16:51.150Z,-0.39
2023-01-26T04:21:53.364Z,-0.42
2023-01-26T04:26:55.570Z,-0.49
2023-01-26T04:31:59.403Z,-0.52
2023-01-26T04:37:01.548Z,-0.47
2023-01-26T04:42:03.757Z,-0.54
2023-01-26T04:47:07.359Z,-0.53
2023-01-26T04:52:09.457Z,-0.61
2023-01-26T04:57:11.665Z,-0.61
2023-01-26T05:02:19.413Z,-0.61
2023-01-26T05:07:21.900Z,-0.60
2023-01-26T05:12:23.676Z,-0.62
2023-01-26T05:17:26.754Z,-0.52
2023-01-26T05:22:28.853Z,-0.63
2023-01-26T05:27:30.833Z,-0.62
2023-01-26T05:32:42.505Z,-0.68
2023-01-26T05:37:44.700Z,-0.71
2023-01-26T05:42:46.453Z,-0.74
2023-01-26T05:47:49.920Z,-0.73
2023-01-26T05:52:51.945Z,-0.73
2023-01-26T05:57:53.976Z,-0.65
2023-01-26T06:02:57.513Z,-0.57
2023-01-26T06:07:59.202Z,-0.62
2023-01-26T06:13:05.839Z,-0.69
2023-01-26T06:18:09.102Z,-0.82
2023-01-26T06:23:11.275Z,-0.81
2023-01-26T06:28:12.969Z,-0.72
2023-01-26T06:33:16.273Z,-0.62
2023-01-26T06:38:17.970Z,-0.66
2023-01-26T06:43:19.651Z,-0.63
2023-01-26T06:48:22.851Z,-0.69
2023-01-26T06:53:32.983Z,-0.63
2023-01-26T06:58:34.804Z,-0.48
2023-01-26T07:03:38.169Z,-0.49
2023-01-26T07:08:40.554Z,-0.65
2023-01-26T07:13:42.248Z,-0.57
2023-01-26T07:18:45.529Z,-0.83
2023-01-26T07:23:47.333Z,-0.91
2023-01-26T07:28:49.043Z,-0.87
2023-01-26T07:33:52.514Z,-0.82
2023-01-26T07:38:54.492Z,-0.86
2023-01-26T07:43:56.232Z,-0.81
2023-01-26T07:48:59.388Z,-0.77
2023-01-26T07:54:01.436Z,-0.83
2023-01-26T07:59:03.983Z,-0.84
2023-01-26T08:04:07.624Z,-0.69
2023-01-26T08:09:10.106Z,-0.70
2023-01-26T08:14:12.147Z,-0.70
2023-01-26T08:19:15.767Z,-0.87
2023-01-26T08:24:17.860Z,-0.84
2023-01-26T08:29:20.063Z,-0.93
2023-01-26T08:34:23.808Z,-0.97
2023-01-26T08:39:26.631Z,-0.90
2023-01-26T08:44:28.370Z,-1.08
2023-01-26T08:49:31.517Z,-0.90
2023-01-26T08:54:33.576Z,-0.88
2023-01-26T08:59:35.449Z,-0.91
2023-01-26T09:04:39.075Z,-0.94
2023-01-26T09:09:41.322Z,-1.03
2023-01-26T09:14:43.454Z,-1.10
2023-01-26T09:19:47.152Z,-0.91
2023-01-26T09:24:49.464Z,-0.96
2023-01-26T09:29:51.696Z,-0.70
2023-01-26T09:34:55.461Z,-0.84
2023-01-26T09:39:57.519Z,-1.02
2023-01-26T09:45:10.020Z,-0.90
2023-01-26T09:50:19.112Z,-0.86
2023-01-26T09:55:23.341Z,-0.90
2023-01-26T10:00:31.038Z,-0.91
2023-01-26T10:05:41.884Z,-0.90
2023-01-26T10:10:48.473Z,-0.79
2023-01-26T10:15:54.352Z,-0.84
2023-01-26T10:20:59.967Z,-0.69
2023-01-26T10:26:12.078Z,-0.69
2023-01-26T10:31:18.699Z,-0.73
2023-01-26T10:36:23.043Z,-0.71
2023-01-26T10:41:29.597Z,-0.70
2023-01-26T10:46:34.281Z,-0.70
2023-01-26T10:51:39.802Z,-0.50
2023-01-26T10:56:45.438Z,-0.24
2023-01-26T11:01:55.138Z,-0.11
2023-01-26T11:07:23.759Z,-0.08
2023-01-26T11:12:25.823Z,-0.06
2023-01-26T11:17:35.118Z,-0.07
2023-01-26T11:22:47.065Z,-0.30
2023-01-26T11:27:59.684Z,-0.25
2023-01-26T11:33:07.311Z,-0.38
2023-01-26T11:38:25.895Z,-0.52
2023-01-26T11:43:45.787Z,-0.49
2023-01-26T11:49:00.777Z,-0.22
2023-01-26T11:54:37.483Z,-0.22
2023-01-26T11:59:44.441Z,-0.24
2023-01-26T12:04:46.722Z,-0.09
2023-01-26T12:09:50.727Z,-0.02
2023-01-26T12:14:57.726Z,0.07
2023-01-26T12:20:05.931Z,-0.17
2023-01-26T12:25:23.352Z,-0.06
2023-01-26T12:30:34.416Z,-0.21
2023-01-26T12:35:52.903Z,-0.24
2023-01-26T12:41:06.829Z,-0.14
2023-01-26T12:46:11.524Z,0.02
2023-01-26T12:51:20.743Z,-0.08
2023-01-26T12:56:29.405Z,-0.31
2023-01-26T13:01:40.275Z,-0.31
2023-01-26T13:06:42.860Z,-0.12
2023-01-26T13:11:52.697Z,0.12
2023-01-26T13:16:55.354Z,0.11
2023-01-26T13:21:57.612Z,0.08
2023-01-26T13:27:01.107Z,-0.19
2023-01-26T13:32:36.735Z,0.07
2023-01-26T13:37:49.586Z,-0.03
2023-01-26T13:42:58.991Z,-0.05
2023-01-26T13:48:05.226Z,-0.15
2023-01-26T13:53:28.812Z,-0.11
2023-01-26T13:58:32.646Z,-0.26
2023-01-26T14:03:34.854Z,-0.27
2023-01-26T14:08:38.153Z,-0.12
2023-01-26T14:13:41.753Z,-0.26
2023-01-26T14:18:43.906Z,-0.24
2023-01-26T14:23:46.201Z,-0.36
2023-01-26T14:28:49.911Z,-0.45
2023-01-26T14:33:53.674Z,-0.43
2023-01-26T14:38:57.188Z,-0.53
2023-01-26T14:44:01.341Z,-0.66
2023-01-26T14:49:08.494Z,-0.71
2023-01-26T14:54:19.159Z,-0.82
2023-01-26T14:59:25.244Z,-0.82
2023-01-26T15:04:36.691Z,-0.84
2023-01-26T15:09:38.403Z,-0.88
2023-01-26T15:14:50.590Z,-0.90
2023-01-26T15:19:53.769Z,-0.96
2023-01-26T15:25:02.099Z,-0.93
2023-01-26T15:30:06.810Z,-0.91
2023-01-26T15:35:20.254Z,-1.00
2023-01-26T15:40:21.925Z,-0.84
2023-01-26T15:45:27.568Z,-1.02
2023-01-26T15:50:29.572Z,-1.08
2023-01-26T15:55:33.366Z,-1.04
2023-01-26T16:00:36.953Z,-1.02
2023-01-26T16:05:39.143Z,-0.97
2023-01-26T16:10:40.964Z,-1.11
2023-01-26T16:15:46.433Z,-0.98
2023-01-26T16:20:49.561Z,-1.14
2023-01-26T16:25:52.205Z,-1.18
2023-01-26T16:31:01.371Z,-1.06
2023-01-26T16:36:04.891Z,-1.00
2023-01-26T16:41:12.517Z,-1.13
2023-01-26T16:46:16.432Z,-1.26
2023-01-26T16:51:21.201Z,-1.28
2023-01-26T16:56:24.530Z,-1.21
2023-01-26T17:01:32.908Z,-1.02
2023-01-26T17:06:34.695Z,-0.81
2023-01-26T17:11:36.594Z,-0.77
2023-01-26T17:16:40.049Z,-0.84
2023-01-26T17:21:42.098Z,-0.83
2023-01-26T17:26:44.574Z,-0.86
2023-01-26T17:31:47.786Z,-0.81
2023-01-26T17:36:49.671Z,-0.99
2023-01-26T17:41:52.206Z,-0.93
2023-01-26T17:46:55.857Z,-1.02
2023-01-26T17:51:57.868Z,-0.84
2023-01-26T17:56:59.931Z,-0.87
2023-01-26T18:02:03.270Z,-1.09
2023-01-26T18:07:05.075Z,-1.15
2023-01-26T18:12:07.391Z,-1.06
2023-01-26T18:17:10.759Z,-0.99
2023-01-26T18:22:13.138Z,-0.89
2023-01-26T18:27:15.371Z,-0.91
2023-01-26T18:32:19.150Z,-1.13
2023-01-26T18:37:21.231Z,-1.13
2023-01-26T18:42:24.766Z,-1.14
2023-01-26T18:47:29.334Z,-1.23
2023-01-26T18:52:31.430Z,-1.21
2023-01-26T18:57:36.685Z,-1.26
2023-01-26T19:02:44.869Z,-1.36
2023-01-26T19:07:47.932Z,-1.12
2023-01-26T19:12:50.440Z,-1.23
2023-01-26T19:17:53.856Z,-1.20
2023-01-26T19:22:56.134Z,-1.26
2023-01-26T19:27:57.991Z,-1.17
2023-01-26T19:33:01.707Z,-1.22
2023-01-26T19:38:04.212Z,-1.16
2023-01-26T19:43:06.037Z,-1.13
2023-01-26T19:48:09.550Z,-1.23
2023-01-26T19:53:11.328Z,-1.18
2023-01-26T19:58:13.731Z,-1.15
2023-01-26T20:03:21.497Z,-1.24
2023-01-26T20:08:24.150Z,-1.18
2023-01-26T20:13:25.848Z,-1.10
2023-01-26T20:18:29.571Z,-1.08
2023-01-26T20:23:31.935Z,-1.15
2023-01-26T20:28:35.112Z,-1.09
2023-01-26T20:33:39.285Z,-1.13
2023-01-26T20:38:41.401Z,-1.10
2023-01-26T20:43:58.048Z,-0.99
2023-01-26T20:49:04.388Z,-1.01
2023-01-26T20:54:07.658Z,-0.99
2023-01-26T20:59:11.106Z,-0.99
2023-01-26T21:04:14.264Z,-1.00
2023-01-26T21:09:16.390Z,-1.00
2023-01-26T21:14:18.985Z,-0.93
2023-01-26T21:19:22.794Z,-0.75
2023-01-26T21:24:25.320Z,-0.59
2023-01-26T21:29:27.149Z,-0.48
2023-01-26T21:34:30.708Z,-0.22
2023-01-26T21:39:32.787Z,-0.30
2023-01-26T21:44:34.584Z,-0.26
2023-01-26T21:49:37.838Z,-0.36
2023-01-26T21:54:40.204Z,-0.35
2023-01-26T21:59:42.254Z,-0.43
2023-01-26T22:04:45.919Z,-0.37
2023-01-26T22:09:47.607Z,-0.42
2023-01-26T22:14:50.978Z,-0.38
2023-01-26T22:19:54.077Z,-0.39
2023-01-26T22:24:56.181Z,-0.40
2023-01-26T22:29:57.937Z,-0.34
2023-01-26T22:35:01.176Z,-0.37
2023-01-26T22:40:03.211Z,-0.39
2023-01-26T22:45:06.161Z,-0.49
2023-01-26T22:50:11.434Z,-0.44
2023-01-26T22:55:13.443Z,-0.52
2023-01-26T23:00:16.126Z,-0.47
2023-01-26T23:05:19.636Z,-0.40
2023-01-26T23:10:22.012Z,-0.38
2023-01-26T23:15:24.315Z,-0.49
2023-01-26T23:20:27.356Z,-0.41
2023-01-26T23:25:29.601Z,-0.47
2023-01-26T23:30:32.732Z,-0.36
2023-01-26T23:35:36.882Z,-0.43
2023-01-26T23:40:39.459Z,-0.43
2023-01-26T23:45:43.402Z,-0.35
2023-01-26T23:50:47.155Z,-0.34
2023-01-26T23:55:49.357Z,-0.23
